sensor_id;sensor_type;location;lat;lon;timestamp;P1;durP1;ratioP1;P2;durP2;ratioP2
70106;SDS011;57473;37.508;15.080;2022-11-15T00:01:57;3.60;;;1.40;;
70106;SDS011;57473;37.508;15.080;2022-11-15T00:04:43;3.13;;;1.40;;
70106;SDS011;57473;37.508;15.080;2022-11-15T00:07:29;2.78;;;1.20;;
70106;SDS011;57473;37.508;15.080;2022-11-15T00:10:36;4.28;;;1.50;;
70106;SDS011;57473;37.508;15.080;2022-11-15T00:13:22;3.33;;;1.40;;
70106;SDS011;57473;37.508;15.080;2022-11-15T00:16:08;2.28;;;1.40;;
70106;SDS011;57473;37.508;15.080;2022-11-15T00:18:55;4.13;;;1.63;;
70106;SDS011;57473;37.508;15.080;2022-11-15T00:21:42;2.42;;;1.40;;
70106;SDS011;57473;37.508;15.080;2022-11-15T00:24:28;3.05;;;1.60;;
70106;SDS011;57473;37.508;15.080;2022-11-15T00:27:14;2.45;;;1.45;;
70106;SDS011;57473;37.508;15.080;2022-11-15T00:30:00;3.05;;;1.60;;
70106;SDS011;57473;37.508;15.080;2022-11-15T00:32:46;4.35;;;1.60;;
70106;SDS011;57473;37.508;15.080;2022-11-15T00:35:33;3.97;;;1.67;;
70106;SDS011;57473;37.508;15.080;2022-11-15T00:38:19;4.00;;;1.67;;
70106;SDS011;57473;37.508;15.080;2022-11-15T00:41:05;2.40;;;1.33;;
70106;SDS011;57473;37.508;15.080;2022-11-15T00:43:54;2.30;;;1.30;;
70106;SDS011;57473;37.508;15.080;2022-11-15T00:46:40;2.35;;;1.45;;
70106;SDS011;57473;37.508;15.080;2022-11-15T00:49:25;2.60;;;1.60;;
70106;SDS011;57473;37.508;15.080;2022-11-15T00:52:11;3.50;;;1.30;;
70106;SDS011;57473;37.508;15.080;2022-11-15T00:54:56;4.03;;;1.80;;
70106;SDS011;57473;37.508;15.080;2022-11-15T00:57:43;5.32;;;1.90;;
70106;SDS011;57473;37.508;15.080;2022-11-15T01:00:29;3.30;;;1.77;;
70106;SDS011;57473;37.508;15.080;2022-11-15T01:03:15;19.83;;;3.47;;
70106;SDS011;57473;37.508;15.080;2022-11-15T01:06:00;4.50;;;1.92;;
70106;SDS011;57473;37.508;15.080;2022-11-15T01:08:46;3.15;;;1.98;;
70106;SDS011;57473;37.508;15.080;2022-11-15T01:11:32;2.22;;;1.60;;
70106;SDS011;57473;37.508;15.080;2022-11-15T01:14:18;3.90;;;1.63;;
70106;SDS011;57473;37.508;15.080;2022-11-15T01:17:09;2.85;;;1.48;;
70106;SDS011;57473;37.508;15.080;2022-11-15T01:19:55;3.22;;;1.70;;
70106;SDS011;57473;37.508;15.080;2022-11-15T01:22:41;3.17;;;1.67;;
70106;SDS011;57473;37.508;15.080;2022-11-15T01:25:27;2.97;;;1.92;;
70106;SDS011;57473;37.508;15.080;2022-11-15T01:28:13;3.83;;;1.80;;
70106;SDS011;57473;37.508;15.080;2022-11-15T01:30:59;4.80;;;1.98;;
70106;SDS011;57473;37.508;15.080;2022-11-15T01:33:46;3.00;;;1.90;;
70106;SDS011;57473;37.508;15.080;2022-11-15T01:36:33;2.90;;;1.98;;
70106;SDS011;57473;37.508;15.080;2022-11-15T01:39:18;4.20;;;2.10;;
70106;SDS011;57473;37.508;15.080;2022-11-15T01:42:04;3.15;;;2.20;;
70106;SDS011;57473;37.508;15.080;2022-11-15T01:44:50;4.18;;;2.13;;
70106;SDS011;57473;37.508;15.080;2022-11-15T01:47:40;3.78;;;2.42;;
70106;SDS011;57473;37.508;15.080;2022-11-15T01:50:30;4.25;;;2.25;;
70106;SDS011;57473;37.508;15.080;2022-11-15T01:53:18;3.92;;;1.95;;
70106;SDS011;57473;37.508;15.080;2022-11-15T01:56:07;4.25;;;2.30;;
70106;SDS011;57473;37.508;15.080;2022-11-15T01:58:56;4.00;;;2.22;;
70106;SDS011;57473;37.508;15.080;2022-11-15T02:01:43;3.40;;;2.17;;
70106;SDS011;57473;37.508;15.080;2022-11-15T02:04:32;5.20;;;2.70;;
70106;SDS011;57473;37.508;15.080;2022-11-15T02:07:22;4.22;;;2.10;;
70106;SDS011;57473;37.508;15.080;2022-11-15T02:10:10;3.65;;;2.10;;
70106;SDS011;57473;37.508;15.080;2022-11-15T02:13:02;4.65;;;2.40;;
70106;SDS011;57473;37.508;15.080;2022-11-15T02:22:28;3.72;;;2.50;;
70106;SDS011;57473;37.508;15.080;2022-11-15T02:28:42;5.32;;;2.70;;
70106;SDS011;57473;37.508;15.080;2022-11-15T02:41:52;3.85;;;2.30;;
70106;SDS011;57473;37.508;15.080;2022-11-15T02:44:43;4.07;;;2.60;;
70106;SDS011;57473;37.508;15.080;2022-11-15T02:47:31;4.18;;;2.40;;
70106;SDS011;57473;37.508;15.080;2022-11-15T02:50:24;5.07;;;2.70;;
70106;SDS011;57473;37.508;15.080;2022-11-15T02:53:12;4.47;;;2.67;;
70106;SDS011;57473;37.508;15.080;2022-11-15T02:55:59;5.80;;;2.85;;
70106;SDS011;57473;37.508;15.080;2022-11-15T03:05:15;5.53;;;2.72;;
70106;SDS011;57473;37.508;15.080;2022-11-15T03:08:06;4.60;;;2.85;;
70106;SDS011;57473;37.508;15.080;2022-11-15T03:11:18;4.45;;;3.05;;
70106;SDS011;57473;37.508;15.080;2022-11-15T03:14:19;5.28;;;2.90;;
70106;SDS011;57473;37.508;15.080;2022-11-15T03:17:30;4.47;;;2.80;;
70106;SDS011;57473;37.508;15.080;2022-11-15T03:20:21;5.05;;;2.90;;
70106;SDS011;57473;37.508;15.080;2022-11-15T03:23:08;4.00;;;2.75;;
70106;SDS011;57473;37.508;15.080;2022-11-15T03:25:56;8.27;;;3.20;;
70106;SDS011;57473;37.508;15.080;2022-11-15T03:28:47;11.05;;;3.50;;
70106;SDS011;57473;37.508;15.080;2022-11-15T03:31:49;6.05;;;3.10;;
70106;SDS011;57473;37.508;15.080;2022-11-15T03:34:53;5.35;;;3.03;;
70106;SDS011;57473;37.508;15.080;2022-11-15T03:43:57;5.95;;;3.42;;
70106;SDS011;57473;37.508;15.080;2022-11-15T03:50:00;5.80;;;3.40;;
70106;SDS011;57473;37.508;15.080;2022-11-15T03:52:50;6.25;;;3.63;;
70106;SDS011;57473;37.508;15.080;2022-11-15T03:55:36;7.10;;;3.60;;
70106;SDS011;57473;37.508;15.080;2022-11-15T03:58:22;8.07;;;4.22;;
70106;SDS011;57473;37.508;15.080;2022-11-15T04:01:08;5.18;;;3.70;;
70106;SDS011;57473;37.508;15.080;2022-11-15T04:03:54;5.05;;;3.30;;
70106;SDS011;57473;37.508;15.080;2022-11-15T04:06:40;6.65;;;3.47;;
70106;SDS011;57473;37.508;15.080;2022-11-15T04:09:25;5.32;;;3.50;;
70106;SDS011;57473;37.508;15.080;2022-11-15T04:12:11;5.50;;;3.47;;
70106;SDS011;57473;37.508;15.080;2022-11-15T04:15:08;5.03;;;3.15;;
70106;SDS011;57473;37.508;15.080;2022-11-15T04:17:56;7.38;;;3.50;;
70106;SDS011;57473;37.508;15.080;2022-11-15T04:20:42;6.35;;;4.00;;
70106;SDS011;57473;37.508;15.080;2022-11-15T04:23:47;4.50;;;3.00;;
70106;SDS011;57473;37.508;15.080;2022-11-15T04:26:32;4.80;;;3.25;;
70106;SDS011;57473;37.508;15.080;2022-11-15T04:29:18;5.10;;;3.00;;
70106;SDS011;57473;37.508;15.080;2022-11-15T04:32:19;6.70;;;3.65;;
70106;SDS011;57473;37.508;15.080;2022-11-15T04:35:05;4.15;;;2.80;;
70106;SDS011;57473;37.508;15.080;2022-11-15T04:37:51;4.78;;;3.08;;
70106;SDS011;57473;37.508;15.080;2022-11-15T04:40:37;6.57;;;3.47;;
70106;SDS011;57473;37.508;15.080;2022-11-15T04:43:23;6.85;;;3.28;;
70106;SDS011;57473;37.508;15.080;2022-11-15T04:46:09;5.03;;;3.30;;
70106;SDS011;57473;37.508;15.080;2022-11-15T04:48:55;4.80;;;3.45;;
70106;SDS011;57473;37.508;15.080;2022-11-15T04:51:43;5.28;;;3.85;;
70106;SDS011;57473;37.508;15.080;2022-11-15T04:54:29;6.03;;;3.88;;
70106;SDS011;57473;37.508;15.080;2022-11-15T04:57:15;8.55;;;3.90;;
70106;SDS011;57473;37.508;15.080;2022-11-15T05:00:02;7.28;;;4.05;;
70106;SDS011;57473;37.508;15.080;2022-11-15T05:02:53;6.78;;;4.38;;
70106;SDS011;57473;37.508;15.080;2022-11-15T05:05:58;8.20;;;4.82;;
70106;SDS011;57473;37.508;15.080;2022-11-15T05:08:44;9.68;;;5.03;;
70106;SDS011;57473;37.508;15.080;2022-11-15T05:11:29;7.88;;;5.63;;
70106;SDS011;57473;37.508;15.080;2022-11-15T05:14:15;8.68;;;6.25;;
70106;SDS011;57473;37.508;15.080;2022-11-15T05:17:01;8.98;;;6.00;;
70106;SDS011;57473;37.508;15.080;2022-11-15T05:19:48;8.98;;;5.40;;
70106;SDS011;57473;37.508;15.080;2022-11-15T05:22:35;8.75;;;6.22;;
70106;SDS011;57473;37.508;15.080;2022-11-15T05:25:21;8.07;;;5.50;;
70106;SDS011;57473;37.508;15.080;2022-11-15T05:28:07;10.90;;;5.72;;
70106;SDS011;57473;37.508;15.080;2022-11-15T05:30:53;8.82;;;4.90;;
70106;SDS011;57473;37.508;15.080;2022-11-15T05:33:45;8.73;;;5.03;;
70106;SDS011;57473;37.508;15.080;2022-11-15T05:36:31;8.38;;;5.28;;
70106;SDS011;57473;37.508;15.080;2022-11-15T05:39:19;11.95;;;4.72;;
70106;SDS011;57473;37.508;15.080;2022-11-15T05:42:06;7.25;;;4.60;;
70106;SDS011;57473;37.508;15.080;2022-11-15T05:44:55;6.97;;;4.93;;
70106;SDS011;57473;37.508;15.080;2022-11-15T05:47:42;7.82;;;4.80;;
70106;SDS011;57473;37.508;15.080;2022-11-15T05:50:29;7.00;;;4.35;;
70106;SDS011;57473;37.508;15.080;2022-11-15T05:53:15;6.28;;;4.70;;
70106;SDS011;57473;37.508;15.080;2022-11-15T05:56:04;7.70;;;4.60;;
70106;SDS011;57473;37.508;15.080;2022-11-15T05:58:53;6.93;;;4.78;;
70106;SDS011;57473;37.508;15.080;2022-11-15T06:01:43;7.10;;;5.00;;
70106;SDS011;57473;37.508;15.080;2022-11-15T06:04:29;13.95;;;5.28;;
70106;SDS011;57473;37.508;15.080;2022-11-15T06:07:15;11.27;;;5.93;;
70106;SDS011;57473;37.508;15.080;2022-11-15T06:10:01;7.43;;;4.97;;
70106;SDS011;57473;37.508;15.080;2022-11-15T06:12:46;8.50;;;5.15;;
70106;SDS011;57473;37.508;15.080;2022-11-15T06:15:32;8.43;;;5.13;;
70106;SDS011;57473;37.508;15.080;2022-11-15T06:18:21;6.88;;;4.90;;
70106;SDS011;57473;37.508;15.080;2022-11-15T06:21:07;9.27;;;5.50;;
70106;SDS011;57473;37.508;15.080;2022-11-15T06:23:53;10.65;;;5.88;;
70106;SDS011;57473;37.508;15.080;2022-11-15T06:26:39;10.70;;;5.70;;
70106;SDS011;57473;37.508;15.080;2022-11-15T06:29:25;10.93;;;5.68;;
70106;SDS011;57473;37.508;15.080;2022-11-15T06:32:10;9.32;;;5.88;;
70106;SDS011;57473;37.508;15.080;2022-11-15T06:34:56;11.32;;;6.20;;
70106;SDS011;57473;37.508;15.080;2022-11-15T06:37:42;10.27;;;6.95;;
70106;SDS011;57473;37.508;15.080;2022-11-15T06:40:28;11.45;;;7.22;;
70106;SDS011;57473;37.508;15.080;2022-11-15T06:43:14;11.10;;;6.85;;
70106;SDS011;57473;37.508;15.080;2022-11-15T06:46:00;12.30;;;7.70;;
70106;SDS011;57473;37.508;15.080;2022-11-15T06:48:47;12.90;;;8.40;;
70106;SDS011;57473;37.508;15.080;2022-11-15T06:51:36;11.57;;;7.38;;
70106;SDS011;57473;37.508;15.080;2022-11-15T06:54:22;13.65;;;6.90;;
70106;SDS011;57473;37.508;15.080;2022-11-15T06:57:08;15.98;;;7.18;;
70106;SDS011;57473;37.508;15.080;2022-11-15T06:59:53;21.77;;;11.23;;
70106;SDS011;57473;37.508;15.080;2022-11-15T07:02:39;17.05;;;10.10;;
70106;SDS011;57473;37.508;15.080;2022-11-15T07:05:26;16.40;;;7.97;;
70106;SDS011;57473;37.508;15.080;2022-11-15T07:08:13;16.17;;;8.45;;
70106;SDS011;57473;37.508;15.080;2022-11-15T07:10:59;12.88;;;8.25;;
70106;SDS011;57473;37.508;15.080;2022-11-15T07:13:46;16.55;;;8.13;;
70106;SDS011;57473;37.508;15.080;2022-11-15T07:16:32;14.10;;;8.23;;
70106;SDS011;57473;37.508;15.080;2022-11-15T07:19:18;16.35;;;7.65;;
70106;SDS011;57473;37.508;15.080;2022-11-15T07:22:03;19.45;;;8.98;;
70106;SDS011;57473;37.508;15.080;2022-11-15T07:24:50;14.80;;;8.80;;
70106;SDS011;57473;37.508;15.080;2022-11-15T07:27:36;16.80;;;8.75;;
70106;SDS011;57473;37.508;15.080;2022-11-15T07:30:22;15.13;;;8.68;;
70106;SDS011;57473;37.508;15.080;2022-11-15T07:33:08;17.67;;;8.77;;
70106;SDS011;57473;37.508;15.080;2022-11-15T07:35:57;17.70;;;9.02;;
70106;SDS011;57473;37.508;15.080;2022-11-15T07:38:47;16.23;;;8.30;;
70106;SDS011;57473;37.508;15.080;2022-11-15T07:41:33;23.45;;;8.70;;
70106;SDS011;57473;37.508;15.080;2022-11-15T07:44:18;13.55;;;8.05;;
70106;SDS011;57473;37.508;15.080;2022-11-15T07:47:05;15.15;;;8.65;;
70106;SDS011;57473;37.508;15.080;2022-11-15T07:49:50;15.93;;;7.60;;
70106;SDS011;57473;37.508;15.080;2022-11-15T07:52:37;13.85;;;8.55;;
70106;SDS011;57473;37.508;15.080;2022-11-15T07:55:23;11.48;;;7.05;;
70106;SDS011;57473;37.508;15.080;2022-11-15T07:58:10;9.77;;;6.82;;
70106;SDS011;57473;37.508;15.080;2022-11-15T08:00:57;11.80;;;6.30;;
70106;SDS011;57473;37.508;15.080;2022-11-15T08:03:43;10.15;;;7.20;;
70106;SDS011;57473;37.508;15.080;2022-11-15T08:06:28;10.32;;;8.07;;
70106;SDS011;57473;37.508;15.080;2022-11-15T08:09:14;11.95;;;6.93;;
70106;SDS011;57473;37.508;15.080;2022-11-15T08:11:59;10.15;;;6.30;;
70106;SDS011;57473;37.508;15.080;2022-11-15T08:14:45;10.73;;;5.47;;
70106;SDS011;57473;37.508;15.080;2022-11-15T08:17:31;8.75;;;5.60;;
70106;SDS011;57473;37.508;15.080;2022-11-15T08:20:17;11.32;;;7.25;;
70106;SDS011;57473;37.508;15.080;2022-11-15T08:23:05;70.30;;;50.95;;
70106;SDS011;57473;37.508;15.080;2022-11-15T08:25:51;12.55;;;8.35;;
70106;SDS011;57473;37.508;15.080;2022-11-15T08:28:37;11.73;;;6.75;;
70106;SDS011;57473;37.508;15.080;2022-11-15T08:31:23;8.13;;;4.75;;
70106;SDS011;57473;37.508;15.080;2022-11-15T08:34:08;6.72;;;4.50;;
70106;SDS011;57473;37.508;15.080;2022-11-15T08:36:54;13.10;;;6.43;;
70106;SDS011;57473;37.508;15.080;2022-11-15T08:39:40;8.00;;;5.03;;
70106;SDS011;57473;37.508;15.080;2022-11-15T08:42:25;9.80;;;5.82;;
70106;SDS011;57473;37.508;15.080;2022-11-15T08:45:11;9.43;;;5.30;;
70106;SDS011;57473;37.508;15.080;2022-11-15T08:47:57;16.48;;;8.55;;
70106;SDS011;57473;37.508;15.080;2022-11-15T08:50:46;8.73;;;6.40;;
70106;SDS011;57473;37.508;15.080;2022-11-15T08:53:33;9.60;;;5.55;;
70106;SDS011;57473;37.508;15.080;2022-11-15T08:56:19;13.60;;;6.68;;
70106;SDS011;57473;37.508;15.080;2022-11-15T08:59:05;12.05;;;6.22;;
70106;SDS011;57473;37.508;15.080;2022-11-15T09:01:51;10.98;;;6.07;;
70106;SDS011;57473;37.508;15.080;2022-11-15T09:04:37;20.08;;;7.45;;
70106;SDS011;57473;37.508;15.080;2022-11-15T09:07:24;14.25;;;7.70;;
70106;SDS011;57473;37.508;15.080;2022-11-15T09:10:10;18.00;;;8.43;;
70106;SDS011;57473;37.508;15.080;2022-11-15T09:12:58;16.27;;;9.07;;
70106;SDS011;57473;37.508;15.080;2022-11-15T09:15:44;18.85;;;9.48;;
70106;SDS011;57473;37.508;15.080;2022-11-15T09:18:30;14.20;;;8.75;;
70106;SDS011;57473;37.508;15.080;2022-11-15T09:21:17;18.33;;;9.40;;
70106;SDS011;57473;37.508;15.080;2022-11-15T09:24:03;18.73;;;9.00;;
70106;SDS011;57473;37.508;15.080;2022-11-15T09:26:50;14.48;;;8.40;;
70106;SDS011;57473;37.508;15.080;2022-11-15T09:29:36;15.20;;;8.75;;
70106;SDS011;57473;37.508;15.080;2022-11-15T09:32:22;15.55;;;9.02;;
70106;SDS011;57473;37.508;15.080;2022-11-15T09:35:08;15.75;;;9.50;;
70106;SDS011;57473;37.508;15.080;2022-11-15T09:37:54;14.77;;;9.40;;
70106;SDS011;57473;37.508;15.080;2022-11-15T09:40:42;15.50;;;9.20;;
70106;SDS011;57473;37.508;15.080;2022-11-15T09:49:59;14.40;;;9.43;;
70106;SDS011;57473;37.508;15.080;2022-11-15T09:52:32;17.10;;;9.63;;
70106;SDS011;57473;37.508;15.080;2022-11-15T09:55:02;15.07;;;8.77;;
70106;SDS011;57473;37.508;15.080;2022-11-15T09:57:32;15.75;;;8.35;;
70106;SDS011;57473;37.508;15.080;2022-11-15T10:03:08;15.93;;;10.10;;
70106;SDS011;57473;37.508;15.080;2022-11-15T10:05:55;16.50;;;9.80;;
70106;SDS011;57473;37.508;15.080;2022-11-15T10:11:27;18.33;;;10.68;;
70106;SDS011;57473;37.508;15.080;2022-11-15T10:14:13;14.63;;;8.68;;
70106;SDS011;57473;37.508;15.080;2022-11-15T10:25:27;17.80;;;8.13;;
70106;SDS011;57473;37.508;15.080;2022-11-15T10:28:06;13.15;;;7.72;;
70106;SDS011;57473;37.508;15.080;2022-11-15T10:30:51;12.63;;;6.18;;
70106;SDS011;57473;37.508;15.080;2022-11-15T10:46:48;11.30;;;6.55;;
70106;SDS011;57473;37.508;15.080;2022-11-15T10:54:45;12.52;;;6.40;;
70106;SDS011;57473;37.508;15.080;2022-11-15T10:57:39;8.98;;;5.57;;
70106;SDS011;57473;37.508;15.080;2022-11-15T11:05:44;8.70;;;4.93;;
70106;SDS011;57473;37.508;15.080;2022-11-15T11:11:02;9.05;;;5.15;;
70106;SDS011;57473;37.508;15.080;2022-11-15T11:16:24;14.63;;;7.60;;
70106;SDS011;57473;37.508;15.080;2022-11-15T11:19:17;26.35;;;12.98;;
70106;SDS011;57473;37.508;15.080;2022-11-15T11:22:17;9.60;;;5.57;;
70106;SDS011;57473;37.508;15.080;2022-11-15T11:33:17;64.82;;;39.80;;
70106;SDS011;57473;37.508;15.080;2022-11-15T11:44:28;15.10;;;10.50;;
70106;SDS011;57473;37.508;15.080;2022-11-15T11:49:52;7.75;;;4.15;;
70106;SDS011;57473;37.508;15.080;2022-11-15T11:55:02;11.15;;;6.22;;
70106;SDS011;57473;37.508;15.080;2022-11-15T12:00:51;8.05;;;6.15;;
70106;SDS011;57473;37.508;15.080;2022-11-15T12:06:35;20.38;;;11.32;;
70106;SDS011;57473;37.508;15.080;2022-11-15T12:09:23;7.60;;;3.60;;
70106;SDS011;57473;37.508;15.080;2022-11-15T12:14:40;14.05;;;8.13;;
70106;SDS011;57473;37.508;15.080;2022-11-15T12:17:12;22.30;;;10.77;;
70106;SDS011;57473;37.508;15.080;2022-11-15T12:19:42;10.18;;;3.58;;
70106;SDS011;57473;37.508;15.080;2022-11-15T12:22:11;34.10;;;20.60;;
70106;SDS011;57473;37.508;15.080;2022-11-15T12:24:56;84.20;;;54.78;;
70106;SDS011;57473;37.508;15.080;2022-11-15T12:27:47;91.93;;;58.97;;
70106;SDS011;57473;37.508;15.080;2022-11-15T12:30:20;96.22;;;59.22;;
70106;SDS011;57473;37.508;15.080;2022-11-15T12:32:50;283.13;;;152.32;;
70106;SDS011;57473;37.508;15.080;2022-11-15T12:38:03;223.63;;;163.77;;
70106;SDS011;57473;37.508;15.080;2022-11-15T12:43:41;109.43;;;71.18;;
70106;SDS011;57473;37.508;15.080;2022-11-15T12:48:49;7.63;;;4.43;;
70106;SDS011;57473;37.508;15.080;2022-11-15T12:57:22;7.28;;;4.78;;
70106;SDS011;57473;37.508;15.080;2022-11-15T12:59:49;8.95;;;4.30;;
70106;SDS011;57473;37.508;15.080;2022-11-15T13:02:22;9.30;;;6.45;;
70106;SDS011;57473;37.508;15.080;2022-11-15T13:20:18;16.42;;;9.15;;
70106;SDS011;57473;37.508;15.080;2022-11-15T13:22:47;10.70;;;4.80;;
70106;SDS011;57473;37.508;15.080;2022-11-15T13:31:01;6.70;;;3.22;;
70106;SDS011;57473;37.508;15.080;2022-11-15T13:33:48;4.65;;;3.20;;
70106;SDS011;57473;37.508;15.080;2022-11-15T13:38:53;12.10;;;6.85;;
70106;SDS011;57473;37.508;15.080;2022-11-15T13:41:32;13.60;;;5.93;;
70106;SDS011;57473;37.508;15.080;2022-11-15T13:44:01;16.85;;;9.77;;
70106;SDS011;57473;37.508;15.080;2022-11-15T13:46:31;8.77;;;4.80;;
70106;SDS011;57473;37.508;15.080;2022-11-15T13:49:03;11.77;;;3.80;;
70106;SDS011;57473;37.508;15.080;2022-11-15T13:51:45;8.13;;;3.58;;
70106;SDS011;57473;37.508;15.080;2022-11-15T13:57:00;7.03;;;3.70;;
70106;SDS011;57473;37.508;15.080;2022-11-15T14:01:58;5.20;;;3.20;;
70106;SDS011;57473;37.508;15.080;2022-11-15T14:04:29;6.72;;;3.10;;
70106;SDS011;57473;37.508;15.080;2022-11-15T14:07:01;5.75;;;3.60;;
70106;SDS011;57473;37.508;15.080;2022-11-15T14:12:00;8.27;;;3.53;;
70106;SDS011;57473;37.508;15.080;2022-11-15T14:14:32;6.18;;;3.65;;
70106;SDS011;57473;37.508;15.080;2022-11-15T14:16:59;9.40;;;4.97;;
70106;SDS011;57473;37.508;15.080;2022-11-15T14:22:07;6.30;;;4.43;;
70106;SDS011;57473;37.508;15.080;2022-11-15T14:24:37;7.53;;;4.35;;
70106;SDS011;57473;37.508;15.080;2022-11-15T14:29:52;7.35;;;4.63;;
70106;SDS011;57473;37.508;15.080;2022-11-15T14:32:21;9.82;;;4.72;;
70106;SDS011;57473;37.508;15.080;2022-11-15T14:34:56;13.57;;;4.80;;
70106;SDS011;57473;37.508;15.080;2022-11-15T14:39:54;11.07;;;4.78;;
70106;SDS011;57473;37.508;15.080;2022-11-15T14:42:22;8.23;;;4.78;;
70106;SDS011;57473;37.508;15.080;2022-11-15T14:44:50;7.65;;;5.28;;
70106;SDS011;57473;37.508;15.080;2022-11-15T14:47:17;9.43;;;5.18;;
70106;SDS011;57473;37.508;15.080;2022-11-15T14:49:45;7.20;;;4.43;;
70106;SDS011;57473;37.508;15.080;2022-11-15T14:52:22;9.40;;;4.97;;
70106;SDS011;57473;37.508;15.080;2022-11-15T14:54:59;12.30;;;4.82;;
70106;SDS011;57473;37.508;15.080;2022-11-15T14:57:29;7.82;;;4.20;;
70106;SDS011;57473;37.508;15.080;2022-11-15T14:59:56;11.73;;;4.97;;
70106;SDS011;57473;37.508;15.080;2022-11-15T15:02:37;8.93;;;5.00;;
70106;SDS011;57473;37.508;15.080;2022-11-15T15:05:15;6.50;;;4.70;;
70106;SDS011;57473;37.508;15.080;2022-11-15T15:07:45;8.73;;;4.50;;
70106;SDS011;57473;37.508;15.080;2022-11-15T15:10:12;7.10;;;4.75;;
70106;SDS011;57473;37.508;15.080;2022-11-15T15:13:02;8.65;;;5.40;;
70106;SDS011;57473;37.508;15.080;2022-11-15T15:15:35;7.28;;;5.13;;
70106;SDS011;57473;37.508;15.080;2022-11-15T15:18:04;10.15;;;4.82;;
70106;SDS011;57473;37.508;15.080;2022-11-15T15:20:32;13.43;;;5.90;;
70106;SDS011;57473;37.508;15.080;2022-11-15T15:22:59;11.00;;;5.00;;
70106;SDS011;57473;37.508;15.080;2022-11-15T15:25:33;10.38;;;5.70;;
70106;SDS011;57473;37.508;15.080;2022-11-15T15:28:02;11.15;;;6.00;;
70106;SDS011;57473;37.508;15.080;2022-11-15T15:30:29;9.45;;;6.65;;
70106;SDS011;57473;37.508;15.080;2022-11-15T15:32:57;12.73;;;5.70;;
70106;SDS011;57473;37.508;15.080;2022-11-15T15:35:24;10.07;;;5.60;;
70106;SDS011;57473;37.508;15.080;2022-11-15T15:37:57;10.23;;;5.38;;
70106;SDS011;57473;37.508;15.080;2022-11-15T15:40:25;11.15;;;5.47;;
70106;SDS011;57473;37.508;15.080;2022-11-15T15:42:54;10.02;;;6.05;;
70106;SDS011;57473;37.508;15.080;2022-11-15T15:45:22;10.45;;;5.88;;
70106;SDS011;57473;37.508;15.080;2022-11-15T15:47:49;10.50;;;6.07;;
70106;SDS011;57473;37.508;15.080;2022-11-15T15:50:23;11.05;;;5.63;;
70106;SDS011;57473;37.508;15.080;2022-11-15T15:52:53;9.15;;;5.70;;
70106;SDS011;57473;37.508;15.080;2022-11-15T15:57:51;11.52;;;6.30;;
70106;SDS011;57473;37.508;15.080;2022-11-15T16:00:19;8.55;;;5.60;;
70106;SDS011;57473;37.508;15.080;2022-11-15T16:02:51;12.10;;;7.18;;
70106;SDS011;57473;37.508;15.080;2022-11-15T16:05:19;9.80;;;6.40;;
70106;SDS011;57473;37.508;15.080;2022-11-15T16:07:47;10.77;;;6.40;;
70106;SDS011;57473;37.508;15.080;2022-11-15T16:10:21;13.43;;;7.13;;
70106;SDS011;57473;37.508;15.080;2022-11-15T16:12:53;14.45;;;7.65;;
70106;SDS011;57473;37.508;15.080;2022-11-15T16:15:22;20.00;;;11.25;;
70106;SDS011;57473;37.508;15.080;2022-11-15T16:17:55;11.73;;;8.00;;
70106;SDS011;57473;37.508;15.080;2022-11-15T16:25:45;15.05;;;7.63;;
70106;SDS011;57473;37.508;15.080;2022-11-15T16:28:27;10.38;;;7.20;;
70106;SDS011;57473;37.508;15.080;2022-11-15T16:31:00;16.73;;;8.20;;
70106;SDS011;57473;37.508;15.080;2022-11-15T16:33:30;16.27;;;8.80;;
70106;SDS011;57473;37.508;15.080;2022-11-15T16:35:59;15.75;;;9.18;;
70106;SDS011;57473;37.508;15.080;2022-11-15T16:38:26;16.15;;;9.13;;
70106;SDS011;57473;37.508;15.080;2022-11-15T16:40:53;13.82;;;8.43;;
70106;SDS011;57473;37.508;15.080;2022-11-15T16:43:20;12.35;;;8.02;;
70106;SDS011;57473;37.508;15.080;2022-11-15T16:45:48;12.98;;;7.70;;
70106;SDS011;57473;37.508;15.080;2022-11-15T16:48:23;15.25;;;8.25;;
70106;SDS011;57473;37.508;15.080;2022-11-15T16:50:55;15.75;;;8.75;;
70106;SDS011;57473;37.508;15.080;2022-11-15T16:53:24;15.75;;;8.20;;
70106;SDS011;57473;37.508;15.080;2022-11-15T16:55:53;13.80;;;8.48;;
70106;SDS011;57473;37.508;15.080;2022-11-15T16:58:21;21.10;;;11.60;;
70106;SDS011;57473;37.508;15.080;2022-11-15T17:00:52;14.02;;;8.02;;
70106;SDS011;57473;37.508;15.080;2022-11-15T17:03:23;33.33;;;16.05;;
70106;SDS011;57473;37.508;15.080;2022-11-15T17:05:51;21.97;;;11.17;;
70106;SDS011;57473;37.508;15.080;2022-11-15T17:08:18;24.67;;;12.73;;
70106;SDS011;57473;37.508;15.080;2022-11-15T17:10:47;27.17;;;13.07;;
70106;SDS011;57473;37.508;15.080;2022-11-15T17:13:14;18.48;;;10.60;;
70106;SDS011;57473;37.508;15.080;2022-11-15T17:15:42;17.02;;;10.45;;
70106;SDS011;57473;37.508;15.080;2022-11-15T17:18:10;18.13;;;9.63;;
70106;SDS011;57473;37.508;15.080;2022-11-15T17:20:39;18.83;;;10.02;;
70106;SDS011;57473;37.508;15.080;2022-11-15T17:23:10;21.92;;;12.30;;
70106;SDS011;57473;37.508;15.080;2022-11-15T17:25:40;24.65;;;11.70;;
70106;SDS011;57473;37.508;15.080;2022-11-15T17:28:08;22.05;;;11.95;;
70106;SDS011;57473;37.508;15.080;2022-11-15T17:30:35;21.98;;;12.98;;
70106;SDS011;57473;37.508;15.080;2022-11-15T17:33:06;29.48;;;15.27;;
70106;SDS011;57473;37.508;15.080;2022-11-15T17:35:33;21.45;;;13.40;;
70106;SDS011;57473;37.508;15.080;2022-11-15T17:38:01;27.33;;;13.48;;
70106;SDS011;57473;37.508;15.080;2022-11-15T17:40:28;26.55;;;15.13;;
70106;SDS011;57473;37.508;15.080;2022-11-15T17:42:55;21.40;;;12.07;;
70106;SDS011;57473;37.508;15.080;2022-11-15T17:45:22;23.00;;;12.77;;
70106;SDS011;57473;37.508;15.080;2022-11-15T17:47:49;19.23;;;11.82;;
70106;SDS011;57473;37.508;15.080;2022-11-15T17:50:17;21.50;;;11.70;;
70106;SDS011;57473;37.508;15.080;2022-11-15T17:52:44;21.10;;;12.85;;
70106;SDS011;57473;37.508;15.080;2022-11-15T17:55:11;23.13;;;9.90;;
70106;SDS011;57473;37.508;15.080;2022-11-15T17:57:38;16.00;;;10.05;;
70106;SDS011;57473;37.508;15.080;2022-11-15T18:00:05;16.40;;;9.00;;
70106;SDS011;57473;37.508;15.080;2022-11-15T18:02:36;15.85;;;8.70;;
70106;SDS011;57473;37.508;15.080;2022-11-15T18:05:03;12.93;;;8.70;;
70106;SDS011;57473;37.508;15.080;2022-11-15T18:07:31;15.43;;;9.32;;
70106;SDS011;57473;37.508;15.080;2022-11-15T18:09:58;22.88;;;11.77;;
70106;SDS011;57473;37.508;15.080;2022-11-15T18:12:27;20.63;;;10.05;;
70106;SDS011;57473;37.508;15.080;2022-11-15T18:14:55;16.20;;;8.55;;
70106;SDS011;57473;37.508;15.080;2022-11-15T18:17:23;15.88;;;9.73;;
70106;SDS011;57473;37.508;15.080;2022-11-15T18:19:52;21.92;;;12.32;;
70106;SDS011;57473;37.508;15.080;2022-11-15T18:22:20;22.48;;;12.15;;
70106;SDS011;57473;37.508;15.080;2022-11-15T18:24:47;29.88;;;17.25;;
70106;SDS011;57473;37.508;15.080;2022-11-15T18:27:14;28.02;;;17.00;;
70106;SDS011;57473;37.508;15.080;2022-11-15T18:29:41;35.67;;;20.02;;
70106;SDS011;57473;37.508;15.080;2022-11-15T18:32:10;47.00;;;31.10;;
70106;SDS011;57473;37.508;15.080;2022-11-15T18:34:41;49.35;;;29.95;;
70106;SDS011;57473;37.508;15.080;2022-11-15T18:37:08;46.30;;;29.42;;
70106;SDS011;57473;37.508;15.080;2022-11-15T18:39:36;38.83;;;24.80;;
70106;SDS011;57473;37.508;15.080;2022-11-15T18:42:03;44.45;;;24.77;;
70106;SDS011;57473;37.508;15.080;2022-11-15T18:44:30;32.90;;;20.73;;